Cape Girardeau Regional Airport
KCGI : now visible

Airfield :











YOU CAN JOIN US ON...

 
LOGIN :

Register | Disclaimer

   EN    FR    IT 

 









Legend :    VFR   Marginal VFR   IFR   Intensive IFR   Very Intensive IFR
Visi :
Ceiling :
>= 8 km
>= 3000ft
5 to 8 km
1000 to 3000 ft
1500m to 5 km
500 to 1000 ft
800 to 1500m
200 to 500 ft
< 800m
< 200 ft
Symbols :   Thunderstorms  Fog  Heavy snow  Heavy precipitations  Wind > 20 kt







- Airport Elevation : 342 ft
- IATA code : CGI


KCGI - Cape Girardeau Regional

CURRENT METAR :
  • 201453Z 17006KT 9SM SCT021 BKN028 OVC033 26/22 A3015 RMK AO2 SLP205 T02610217 51014

EXPIRED METARs :
  • 201419Z 14007KT 8SM OVC030 25/22 A3014 RMK AO2 T02500217
  • 201353Z 15007KT 7SM OVC028 24/22 A3014 RMK AO2 SLP202 T02440217
  • 201305Z 15007KT 6SM BR BKN029 OVC047 23/21 A3013 RMK AO2 T02330211

TAF KCGI
Valid from the 20 at 14:00 until the 21 at 12:00 UTC


201341Z 2014/2112 14004KT P6SM BKN029
FM201415 18011KT P6SM VCSH SCT030 BKN050
FM202100 18011KT P6SM FEW045 SCT120
FM210200 00000KT P6SM SCT250
No reported NOTAMs for that airfield.



MET'MAP, your aeronautical weather chart ! - Copyright ORBIFLY December 2007 - Disclaimer

ORBIFLY MET'MAP TEAM :

Programming & Development : Alexandra Zaïnal
Concept & Development : Baudouin d'Aumeries
Co-Development & Prog : Marc-Olivier Méhu
Technical & hardware support : Manuel Goepfert

Contact : metmap@orbifly.com




SOURCES & CREDITS :

   NOAA       Earth
Advisory